AAL140 MMMX-MGGT
Flight info
| Callsign | AAL140 |
|---|---|
| Flight time | N/A |
| Altitude | 37000 |
| Route | UKUNO3A UKUNO UT108 VER UA552 AUR DCT |
| Aircraft | B738/M-V/N |
Departure
| Time | 2026-05-08 02:48 |
|---|---|
| Airport | Mexico City Benito Juárez International Airport (MMMX) |
Arrival
| Time | N/A |
|---|---|
| Airport | La Aurora International Airport (MGGT) |
| Time | Latitude | Longitude | Altitude | Speed | Heading |
|---|---|---|---|---|---|
| 2026-05-08 02:16 | 19.43297 | -99.08518 | 7357 ft | 0 kts | 331° |
| 2026-05-08 02:37 | 19.43291 | -99.08514 | 7356 ft | 2 kts | 331° |
| 2026-05-08 02:38 | 19.43278 | -99.08507 | 7356 ft | 2 kts | 330° |
| 2026-05-08 02:38 | 19.43265 | -99.08499 | 7356 ft | 2 kts | 331° |
| 2026-05-08 02:38 | 19.43252 | -99.08491 | 7356 ft | 2 kts | 331° |
| 2026-05-08 02:38 | 19.43240 | -99.08485 | 7356 ft | 0 kts | 331° |
| 2026-05-08 02:39 | 19.43230 | -99.08478 | 7356 ft | 2 kts | 305° |
| 2026-05-08 02:39 | 19.43225 | -99.08463 | 7356 ft | 2 kts | 272° |
| 2026-05-08 02:39 | 19.43227 | -99.08450 | 7356 ft | 0 kts | 243° |
| 2026-05-08 02:39 | 19.43230 | -99.08444 | 7356 ft | 1 kts | 238° |
| 2026-05-08 02:40 | 19.43231 | -99.08443 | 7356 ft | 0 kts | 239° |
| 2026-05-08 02:41 | 19.43230 | -99.08444 | 7356 ft | 0 kts | 239° |
| 2026-05-08 02:42 | 19.43224 | -99.08456 | 7356 ft | 2 kts | 239° |
| 2026-05-08 02:42 | 19.43205 | -99.08489 | 7356 ft | 7 kts | 241° |
| 2026-05-08 02:42 | 19.43170 | -99.08556 | 7355 ft | 13 kts | 239° |
| 2026-05-08 02:42 | 19.43111 | -99.08659 | 7352 ft | 19 kts | 240° |
| 2026-05-08 02:43 | 19.43029 | -99.08805 | 7346 ft | 25 kts | 238° |
| 2026-05-08 02:43 | 19.42948 | -99.08950 | 7342 ft | 16 kts | 239° |
| 2026-05-08 02:43 | 19.42897 | -99.09012 | 7340 ft | 0 kts | 197° |
| 2026-05-08 02:46 | 19.42890 | -99.09014 | 7340 ft | 3 kts | 192° |
| 2026-05-08 02:46 | 19.42831 | -99.08997 | 7339 ft | 13 kts | 146° |
| 2026-05-08 02:46 | 19.42825 | -99.08935 | 7340 ft | 0 kts | 61° |
| 2026-05-08 02:47 | 19.42850 | -99.08888 | 7341 ft | 30 kts | 60° |
| 2026-05-08 02:47 | 19.43074 | -99.08493 | 7355 ft | 92 kts | 59° |
| 2026-05-08 02:48 | 19.43509 | -99.07721 | 7348 ft | 148 kts | 59° |
| 2026-05-08 02:48 | 19.44098 | -99.06660 | 7441 ft | 183 kts | 57° |
| 2026-05-08 02:48 | 19.44766 | -99.05415 | 7797 ft | 205 kts | 57° |
| 2026-05-08 02:48 | 19.45525 | -99.04089 | 8390 ft | 216 kts | 57° |
| 2026-05-08 02:49 | 19.46350 | -99.02694 | 8915 ft | 232 kts | 57° |
| 2026-05-08 02:49 | 19.47188 | -99.01225 | 9642 ft | 236 kts | 58° |
| 2026-05-08 02:49 | 19.48032 | -98.99733 | 10391 ft | 240 kts | 59° |
| 2026-05-08 02:49 | 19.48931 | -98.98154 | 10877 ft | 257 kts | 59° |
| 2026-05-08 02:50 | 19.49856 | -98.96527 | 11508 ft | 266 kts | 60° |
| 2026-05-08 02:50 | 19.50810 | -98.94831 | 12229 ft | 270 kts | 60° |
| 2026-05-08 02:50 | 19.51768 | -98.93116 | 12876 ft | 276 kts | 60° |
| 2026-05-08 02:50 | 19.52753 | -98.91346 | 13523 ft | 282 kts | 61° |
| 2026-05-08 02:51 | 19.53598 | -98.89429 | 13984 ft | 294 kts | 72° |
| 2026-05-08 02:51 | 19.54204 | -98.87310 | 14314 ft | 314 kts | 76° |
| 2026-05-08 02:51 | 19.54765 | -98.85027 | 14867 ft | 325 kts | 76° |
| 2026-05-08 02:51 | 19.55346 | -98.82702 | 15532 ft | 331 kts | 76° |
| 2026-05-08 02:52 | 19.55950 | -98.80350 | 16285 ft | 333 kts | 76° |
| 2026-05-08 02:52 | 19.56592 | -98.77992 | 17020 ft | 336 kts | 74° |
| 2026-05-08 02:52 | 19.57236 | -98.75618 | 17713 ft | 340 kts | 77° |
| 2026-05-08 02:52 | 19.57580 | -98.73090 | 18079 ft | 353 kts | 90° |
| 2026-05-08 02:53 | 19.57338 | -98.70483 | 18431 ft | 364 kts | 102° |
| 2026-05-08 02:53 | 19.56812 | -98.67802 | 19011 ft | 370 kts | 104° |
| 2026-05-08 02:53 | 19.56245 | -98.65159 | 19710 ft | 371 kts | 105° |
| 2026-05-08 02:53 | 19.55688 | -98.62516 | 20366 ft | 374 kts | 105° |
| 2026-05-08 02:54 | 19.55138 | -98.59831 | 20987 ft | 377 kts | 104° |
| 2026-05-08 02:54 | 19.54586 | -98.57097 | 21575 ft | 380 kts | 105° |
| 2026-05-08 02:54 | 19.54034 | -98.54352 | 22167 ft | 383 kts | 105° |
| 2026-05-08 02:54 | 19.53480 | -98.51593 | 22725 ft | 386 kts | 105° |
| 2026-05-08 02:55 | 19.52921 | -98.48813 | 23300 ft | 389 kts | 105° |
| 2026-05-08 02:55 | 19.51786 | -98.43156 | 24328 ft | 396 kts | 104° |
| 2026-05-08 02:55 | 19.51217 | -98.40318 | 24788 ft | 401 kts | 104° |
| 2026-05-08 02:56 | 19.50634 | -98.37418 | 25277 ft | 405 kts | 104° |
| 2026-05-08 02:56 | 19.50047 | -98.34506 | 25850 ft | 405 kts | 104° |
| 2026-05-08 02:56 | 19.49462 | -98.31596 | 26471 ft | 403 kts | 104° |
| 2026-05-08 02:56 | 19.48882 | -98.28711 | 27048 ft | 401 kts | 104° |
| 2026-05-08 02:57 | 19.48304 | -98.25835 | 27568 ft | 401 kts | 104° |
| 2026-05-08 02:57 | 19.47720 | -98.22939 | 27987 ft | 403 kts | 104° |
| 2026-05-08 02:57 | 19.47136 | -98.20034 | 28526 ft | 401 kts | 104° |
| 2026-05-08 02:57 | 19.46566 | -98.17200 | 29173 ft | 397 kts | 104° |
| 2026-05-08 02:58 | 19.45986 | -98.14330 | 29451 ft | 402 kts | 104° |
| 2026-05-08 02:58 | 19.45391 | -98.11407 | 29515 ft | 413 kts | 104° |
| 2026-05-08 02:58 | 19.44777 | -98.08401 | 29531 ft | 424 kts | 104° |
| 2026-05-08 02:58 | 19.44145 | -98.05298 | 29535 ft | 436 kts | 104° |
| 2026-05-08 02:59 | 19.43500 | -98.02113 | 29560 ft | 447 kts | 103° |
| 2026-05-08 02:59 | 19.42994 | -97.98891 | 30195 ft | 443 kts | 99° |
| 2026-05-08 02:59 | 19.42645 | -97.95673 | 30876 ft | 438 kts | 97° |
| 2026-05-08 02:59 | 19.42363 | -97.92500 | 31285 ft | 439 kts | 97° |
| 2026-05-08 03:00 | 19.42091 | -97.89278 | 31643 ft | 441 kts | 96° |
| 2026-05-08 03:00 | 19.41812 | -97.86028 | 32047 ft | 441 kts | 97° |
| 2026-05-08 03:00 | 19.41527 | -97.82824 | 32501 ft | 439 kts | 97° |
| 2026-05-08 03:00 | 19.41235 | -97.79626 | 32952 ft | 438 kts | 97° |
| 2026-05-08 03:01 | 19.40934 | -97.76408 | 33338 ft | 438 kts | 97° |
| 2026-05-08 03:01 | 19.40631 | -97.73217 | 33775 ft | 436 kts | 97° |
| 2026-05-08 03:01 | 19.40324 | -97.70021 | 34120 ft | 437 kts | 97° |
| 2026-05-08 03:01 | 19.40017 | -97.66845 | 34548 ft | 435 kts | 97° |
| 2026-05-08 03:02 | 19.39708 | -97.63667 | 34853 ft | 436 kts | 97° |
| 2026-05-08 03:02 | 19.39399 | -97.60503 | 35175 ft | 436 kts | 97° |
| 2026-05-08 03:02 | 19.39084 | -97.57289 | 35424 ft | 437 kts | 97° |
| 2026-05-08 03:02 | 19.38773 | -97.54108 | 35687 ft | 438 kts | 97° |
| 2026-05-08 03:03 | 19.38464 | -97.50916 | 35946 ft | 439 kts | 97° |
| 2026-05-08 03:03 | 19.38155 | -97.47679 | 36144 ft | 441 kts | 97° |
| 2026-05-08 03:03 | 19.37836 | -97.44428 | 36210 ft | 446 kts | 97° |
| 2026-05-08 03:03 | 19.37512 | -97.41172 | 36464 ft | 447 kts | 97° |
| 2026-05-08 03:04 | 19.37188 | -97.37909 | 36717 ft | 447 kts | 97° |
| 2026-05-08 03:04 | 19.36863 | -97.34648 | 36993 ft | 447 kts | 97° |
| 2026-05-08 03:04 | 19.36541 | -97.31416 | 37440 ft | 442 kts | 97° |
| 2026-05-08 03:05 | 19.35886 | -97.24885 | 37504 ft | 452 kts | 97° |
| 2026-05-08 03:05 | 19.35208 | -97.18192 | 37453 ft | 464 kts | 97° |
| 2026-05-08 03:06 | 19.34513 | -97.11315 | 37355 ft | 476 kts | 97° |
| 2026-05-08 03:06 | 19.33765 | -97.04321 | 37278 ft | 487 kts | 99° |
| 2026-05-08 03:07 | 19.32405 | -96.97275 | 37190 ft | 487 kts | 105° |
| 2026-05-08 03:07 | 19.30772 | -96.90394 | 37148 ft | 477 kts | 105° |
| 2026-05-08 03:08 | 19.29169 | -96.83659 | 37106 ft | 476 kts | 105° |
| 2026-05-08 03:08 | 19.27583 | -96.76862 | 37067 ft | 477 kts | 105° |
| 2026-05-08 03:09 | 19.26013 | -96.70039 | 37021 ft | 477 kts | 104° |
| 2026-05-08 03:09 | 19.24464 | -96.63260 | 37000 ft | 476 kts | 105° |
| 2026-05-08 03:10 | 19.22911 | -96.56460 | 36977 ft | 476 kts | 105° |
| 2026-05-08 03:10 | 19.21357 | -96.49663 | 36940 ft | 476 kts | 104° |
| 2026-05-08 03:11 | 19.19802 | -96.42869 | 36930 ft | 476 kts | 104° |
| 2026-05-08 03:11 | 19.18251 | -96.36097 | 36902 ft | 475 kts | 104° |
| 2026-05-08 03:12 | 19.16699 | -96.29333 | 36891 ft | 474 kts | 104° |
| 2026-05-08 03:12 | 19.15105 | -96.22619 | 36892 ft | 473 kts | 107° |
| 2026-05-08 03:13 | 19.12652 | -96.16190 | 36890 ft | 469 kts | 121° |
| 2026-05-08 03:13 | 19.09145 | -96.10414 | 36883 ft | 467 kts | 126° |
| 2026-05-08 03:14 | 19.05438 | -96.04810 | 36876 ft | 467 kts | 127° |
| 2026-05-08 03:14 | 19.01742 | -95.99195 | 36866 ft | 467 kts | 126° |
| 2026-05-08 03:15 | 18.98058 | -95.93532 | 36863 ft | 467 kts | 126° |
| 2026-05-08 03:15 | 18.94419 | -95.87899 | 36862 ft | 466 kts | 126° |
| 2026-05-08 03:16 | 18.75290 | -95.58253 | 36851 ft | 466 kts | 125° |
| 2026-05-08 03:16 | 18.46149 | -95.13193 | 36878 ft | 466 kts | 125° |
| 2026-05-08 03:17 | 18.16880 | -94.68346 | 36898 ft | 466 kts | 124° |
| 2026-05-08 03:17 | 18.08079 | -94.55631 | 36859 ft | 465 kts | 133° |
| 2026-05-08 03:18 | 18.03464 | -94.50868 | 36857 ft | 465 kts | 136° |
| 2026-05-08 03:18 | 17.92800 | -94.40357 | 36859 ft | 465 kts | 136° |
| 2026-05-08 03:19 | 17.19099 | -93.64969 | 36939 ft | 465 kts | 134° |
| 2026-05-08 03:19 | 16.78166 | -93.23796 | 37121 ft | 454 kts | 136° |
| 2026-05-08 03:20 | 16.73533 | -93.19371 | 37082 ft | 450 kts | 136° |
| 2026-05-08 03:20 | 16.62929 | -93.09000 | 37065 ft | 451 kts | 135° |
| 2026-05-08 03:21 | 16.58424 | -93.04483 | 37052 ft | 452 kts | 134° |
| 2026-05-08 03:21 | 16.54140 | -92.99680 | 37037 ft | 452 kts | 128° |
| 2026-05-08 03:22 | 16.50178 | -92.94566 | 37030 ft | 453 kts | 127° |
| 2026-05-08 03:22 | 16.46253 | -92.89465 | 37043 ft | 454 kts | 128° |
| 2026-05-08 03:23 | 16.42263 | -92.84340 | 37045 ft | 455 kts | 128° |
| 2026-05-08 03:23 | 16.38258 | -92.79240 | 37047 ft | 456 kts | 128° |
| 2026-05-08 03:24 | 16.34216 | -92.74114 | 37046 ft | 458 kts | 128° |
| 2026-05-08 03:24 | 16.30173 | -92.68989 | 37052 ft | 459 kts | 128° |
| 2026-05-08 03:25 | 16.26127 | -92.63866 | 37053 ft | 460 kts | 128° |
| 2026-05-08 03:25 | 16.22063 | -92.58727 | 37050 ft | 461 kts | 128° |
| 2026-05-08 03:26 | 15.76053 | -92.00993 | 37235 ft | 462 kts | 129° |
| 2026-05-08 03:26 | 15.57210 | -91.76900 | 37065 ft | 459 kts | 123° |
| 2026-05-08 03:26 | 15.55597 | -91.74098 | 37239 ft | 455 kts | 116° |
| 2026-05-08 03:27 | 15.52724 | -91.68235 | 37345 ft | 455 kts | 116° |
| 2026-05-08 03:27 | 15.49624 | -91.62520 | 37416 ft | 456 kts | 120° |
| 2026-05-08 03:28 | 15.46257 | -91.56983 | 37468 ft | 457 kts | 121° |
| 2026-05-08 03:28 | 15.42751 | -91.51498 | 37026 ft | 455 kts | 122° |
| 2026-05-08 03:28 | 15.40986 | -91.48785 | 36550 ft | 449 kts | 122° |
| 2026-05-08 03:29 | 15.39260 | -91.46144 | 36084 ft | 444 kts | 123° |
| 2026-05-08 03:29 | 15.37520 | -91.43493 | 35609 ft | 438 kts | 123° |
| 2026-05-08 03:29 | 15.35828 | -91.40919 | 35141 ft | 433 kts | 123° |
| 2026-05-08 03:29 | 15.34134 | -91.38345 | 34671 ft | 428 kts | 123° |
| 2026-05-08 03:30 | 15.30839 | -91.33341 | 33747 ft | 419 kts | 123° |
| 2026-05-08 03:30 | 15.27580 | -91.28388 | 32831 ft | 417 kts | 123° |
| 2026-05-08 03:31 | 15.24281 | -91.23380 | 31984 ft | 422 kts | 123° |
| 2026-05-08 03:31 | 15.20961 | -91.18350 | 30762 ft | 426 kts | 123° |
| 2026-05-08 03:32 | 15.19293 | -91.15828 | 30108 ft | 426 kts | 123° |
| 2026-05-08 03:32 | 15.17629 | -91.13311 | 29454 ft | 425 kts | 124° |
| 2026-05-08 03:32 | 15.15970 | -91.10802 | 28764 ft | 426 kts | 124° |
| 2026-05-08 03:32 | 15.14274 | -91.08267 | 28064 ft | 426 kts | 125° |
| 2026-05-08 03:33 | 15.12487 | -91.05825 | 27368 ft | 426 kts | 130° |
| 2026-05-08 03:33 | 15.10502 | -91.03614 | 26680 ft | 425 kts | 135° |
| 2026-05-08 03:33 | 15.08354 | -91.01514 | 25968 ft | 417 kts | 137° |
| 2026-05-08 03:33 | 15.06228 | -90.99539 | 25280 ft | 408 kts | 137° |
| 2026-05-08 03:34 | 15.04146 | -90.97626 | 24596 ft | 400 kts | 137° |
| 2026-05-08 03:34 | 15.02083 | -90.95722 | 23906 ft | 392 kts | 137° |
| 2026-05-08 03:34 | 15.00074 | -90.93855 | 23226 ft | 385 kts | 137° |
| 2026-05-08 03:34 | 14.98114 | -90.92024 | 22556 ft | 378 kts | 137° |
| 2026-05-08 03:35 | 14.96185 | -90.90212 | 21896 ft | 371 kts | 136° |
| 2026-05-08 03:35 | 14.94297 | -90.88433 | 21248 ft | 365 kts | 136° |
| 2026-05-08 03:35 | 14.92445 | -90.86682 | 20602 ft | 360 kts | 136° |
| 2026-05-08 03:35 | 14.90622 | -90.84957 | 19958 ft | 356 kts | 136° |
| 2026-05-08 03:36 | 14.88800 | -90.83233 | 19304 ft | 352 kts | 136° |
| 2026-05-08 03:36 | 14.87015 | -90.81541 | 18653 ft | 348 kts | 136° |
| 2026-05-08 03:36 | 14.85248 | -90.79867 | 18003 ft | 344 kts | 136° |
| 2026-05-08 03:36 | 14.83474 | -90.78185 | 17342 ft | 341 kts | 136° |
| 2026-05-08 03:37 | 14.81734 | -90.76536 | 16698 ft | 339 kts | 136° |
| 2026-05-08 03:37 | 14.80009 | -90.74903 | 16210 ft | 331 kts | 136° |
| 2026-05-08 03:37 | 14.78366 | -90.73350 | 16053 ft | 313 kts | 136° |
| 2026-05-08 03:37 | 14.76796 | -90.71867 | 16016 ft | 298 kts | 135° |
| 2026-05-08 03:38 | 14.75279 | -90.70429 | 16025 ft | 298 kts | 135° |
| 2026-05-08 03:38 | 14.73730 | -90.68960 | 15951 ft | 307 kts | 135° |
| 2026-05-08 03:38 | 14.72139 | -90.67453 | 15610 ft | 311 kts | 136° |
| 2026-05-08 03:38 | 14.70557 | -90.65958 | 15220 ft | 306 kts | 136° |
| 2026-05-08 03:39 | 14.68999 | -90.64488 | 14828 ft | 298 kts | 135° |
| 2026-05-08 03:39 | 14.67510 | -90.63080 | 14443 ft | 288 kts | 135° |
| 2026-05-08 03:39 | 14.66051 | -90.61700 | 14003 ft | 282 kts | 135° |
| 2026-05-08 03:39 | 14.64612 | -90.60339 | 13494 ft | 279 kts | 135° |
| 2026-05-08 03:40 | 14.63178 | -90.58984 | 12981 ft | 276 kts | 135° |
| 2026-05-08 03:40 | 14.61770 | -90.57656 | 12473 ft | 273 kts | 135° |
| 2026-05-08 03:40 | 14.60380 | -90.56346 | 11965 ft | 271 kts | 135° |
| 2026-05-08 03:40 | 14.58943 | -90.55101 | 11455 ft | 270 kts | 142° |
| 2026-05-08 03:41 | 14.57248 | -90.54247 | 10937 ft | 271 kts | 165° |
| 2026-05-08 03:41 | 14.55380 | -90.54225 | 10375 ft | 269 kts | 192° |
| 2026-05-08 03:41 | 14.53732 | -90.55033 | 9644 ft | 266 kts | 216° |
| 2026-05-08 03:41 | 14.52346 | -90.56283 | 8896 ft | 265 kts | 221° |
| 2026-05-08 03:42 | 14.50912 | -90.57531 | 8144 ft | 273 kts | 216° |